LYBE - BEOGRAD / NIKOLA TESLA

Compiled: 17:17:42 on 20/10/2018

Latest METAR/SPECI Reports

METAR LYBE 201700Z 27005KT 6000 SCT033 16/14 Q1022 TEMPO 5000 BR=

Previous reports

METAR LYBE 201630Z 24005KT 5000 BR SCT033 16/14 Q1022 TEMPO 4000=
METAR LYBE 201600Z 24004KT 4000 BR NSC 16/14 Q1022 TEMPO 3000=
METAR LYBE 201530Z 27004KT 5000 BR NSC 17/14 Q1022 NOSIG=
METAR LYBE 201500Z 29006KT 5000 BR FEW020 17/14 Q1022 NOSIG=

Latest TAF report

TAF LYBE 201100Z 2012/2112 28008KT 8000 SCT013 BKN040 TX17/2013Z TN09/2105Z BECMG 2101/2103 BKN015 TEMPO 2106/2110 5000 BR BKN008=

Valid WARNINGS

No valid warnings for LYBE